createdAt,value
2019-06-15T00:01:06.285Z,17.67
2019-06-15T00:03:35.978Z,12.03
2019-06-15T00:06:05.729Z,17.20
2019-06-15T00:08:35.549Z,15.77
2019-06-15T00:11:05.349Z,13.00
2019-06-15T00:13:35.037Z,10.00
2019-06-15T00:16:04.757Z,10.03
2019-06-15T00:18:34.496Z,14.43
2019-06-15T00:21:04.310Z,12.23
2019-06-15T00:23:34.027Z,14.20
2019-06-15T00:26:03.674Z,9.33
2019-06-15T00:28:33.361Z,11.90
2019-06-15T00:31:04.140Z,12.00
2019-06-15T00:33:33.831Z,10.63
2019-06-15T00:36:03.589Z,14.33
2019-06-15T00:38:33.347Z,14.50
2019-06-15T00:41:03.034Z,10.67
2019-06-15T00:43:32.710Z,9.80
2019-06-15T00:46:02.460Z,12.50
2019-06-15T00:48:32.168Z,10.40
2019-06-15T00:51:02.006Z,14.17
2019-06-15T00:53:31.751Z,14.30
2019-06-15T00:56:01.441Z,14.50
2019-06-15T00:58:31.106Z,14.87
2019-06-15T01:01:00.846Z,13.23
2019-06-15T01:03:30.546Z,12.80
2019-06-15T01:06:00.220Z,18.83
2019-06-15T01:08:29.988Z,9.57
2019-06-15T01:10:59.667Z,12.87
2019-06-15T01:13:29.414Z,11.67
2019-06-15T01:15:59.096Z,12.77
2019-06-15T01:18:28.760Z,12.83
2019-06-15T01:20:58.468Z,10.50
2019-06-15T01:23:28.178Z,14.07
2019-06-15T01:25:57.879Z,12.93
2019-06-15T01:28:27.550Z,15.90
2019-06-15T01:30:57.246Z,10.40
2019-06-15T01:33:26.988Z,12.00
2019-06-15T01:35:56.748Z,20.83
2019-06-15T01:38:26.442Z,12.87
2019-06-15T01:40:56.622Z,14.30
2019-06-15T01:43:26.312Z,15.40
2019-06-15T01:45:57.180Z,11.57
2019-06-15T01:48:26.955Z,16.87
2019-06-15T01:50:56.648Z,16.80
2019-06-15T01:53:26.334Z,14.90
2019-06-15T01:55:56.068Z,22.30
2019-06-15T01:58:25.751Z,19.90
2019-06-15T02:00:55.752Z,16.50
2019-06-15T02:03:25.421Z,14.70
2019-06-15T02:05:55.170Z,18.67
2019-06-15T02:08:24.885Z,14.83
2019-06-15T02:10:54.988Z,17.40
2019-06-15T02:13:24.757Z,15.13
2019-06-15T02:15:54.473Z,13.53
2019-06-15T02:18:24.167Z,17.17
2019-06-15T02:20:53.916Z,16.23
2019-06-15T02:23:23.597Z,15.07
2019-06-15T02:25:53.302Z,18.10
2019-06-15T02:28:22.959Z,16.10
2019-06-15T02:30:52.664Z,14.60
2019-06-15T02:33:22.415Z,14.40
2019-06-15T02:35:52.113Z,16.57
2019-06-15T02:38:21.918Z,16.20
2019-06-15T02:40:51.739Z,13.40
2019-06-15T02:43:21.760Z,11.20
2019-06-15T02:45:51.590Z,16.50
2019-06-15T02:48:21.285Z,19.93
2019-06-15T02:50:51.073Z,15.23
2019-06-15T02:53:20.761Z,17.57
2019-06-15T02:55:51.121Z,14.50
2019-06-15T02:58:21.152Z,23.70
2019-06-15T03:00:58.491Z,11.47
2019-06-15T03:03:28.190Z,18.20
2019-06-15T03:05:58.495Z,22.80
2019-06-15T03:08:28.360Z,16.20
2019-06-15T03:10:58.085Z,13.30
2019-06-15T03:13:28.091Z,16.93
2019-06-15T03:15:59.511Z,18.77
2019-06-15T03:18:33.326Z,14.57
2019-06-15T03:21:08.407Z,19.20
2019-06-15T03:23:38.198Z,15.37
2019-06-15T03:26:08.006Z,17.57
2019-06-15T03:28:37.729Z,15.03
2019-06-15T03:31:07.453Z,18.20
2019-06-15T03:33:37.268Z,16.03
2019-06-15T03:36:07.069Z,18.93
2019-06-15T03:38:36.788Z,20.83
2019-06-15T03:41:06.558Z,18.63
2019-06-15T03:43:36.235Z,19.70
2019-06-15T03:46:06.025Z,15.00
2019-06-15T03:48:35.781Z,23.47
2019-06-15T03:51:05.620Z,23.50
2019-06-15T03:53:35.348Z,14.97
2019-06-15T03:56:17.618Z,18.63
2019-06-15T03:58:36.758Z,17.97
2019-06-15T04:01:22.153Z,17.03
2019-06-15T04:03:51.823Z,13.93
2019-06-15T04:06:21.495Z,17.13
2019-06-15T04:08:51.185Z,16.30
2019-06-15T04:11:20.919Z,17.53
2019-06-15T04:13:51.575Z,17.77
2019-06-15T04:16:21.358Z,27.37
2019-06-15T04:18:51.074Z,14.63
2019-06-15T04:21:20.846Z,14.50
2019-06-15T04:23:50.545Z,14.23
2019-06-15T04:26:20.255Z,17.43
2019-06-15T04:28:49.941Z,14.43
2019-06-15T04:31:19.631Z,18.17
2019-06-15T04:33:49.311Z,16.83
2019-06-15T04:36:19.008Z,22.67
2019-06-15T04:38:48.650Z,17.67
2019-06-15T04:41:18.362Z,20.83
2019-06-15T04:43:48.059Z,20.30
2019-06-15T04:46:17.725Z,15.97
2019-06-15T04:48:47.452Z,20.90
2019-06-15T04:51:17.190Z,13.90
2019-06-15T04:53:46.915Z,23.93
2019-06-15T04:56:16.586Z,15.20
2019-06-15T04:58:46.314Z,18.30
2019-06-15T05:01:16.168Z,19.47
2019-06-15T05:03:45.920Z,15.17
2019-06-15T05:06:16.559Z,16.10
2019-06-15T05:08:46.284Z,16.03
2019-06-15T05:11:16.020Z,18.60
2019-06-15T05:13:45.722Z,16.50
2019-06-15T05:16:15.401Z,15.27
2019-06-15T05:18:45.124Z,15.00
2019-06-15T05:21:14.817Z,12.80
2019-06-15T05:23:44.590Z,15.93
2019-06-15T05:26:15.346Z,11.60
2019-06-15T05:28:45.024Z,11.33
2019-06-15T05:31:14.713Z,11.63
2019-06-15T05:33:44.443Z,12.97
2019-06-15T05:36:14.121Z,10.70
2019-06-15T05:38:43.890Z,13.40
2019-06-15T05:41:15.704Z,23.17
2019-06-15T05:43:45.053Z,15.73
2019-06-15T05:46:14.753Z,15.97
2019-06-15T05:48:44.441Z,22.13
2019-06-15T05:51:14.166Z,16.20
2019-06-15T05:53:44.142Z,15.20
2019-06-15T05:56:13.828Z,12.07
2019-06-15T05:58:43.524Z,10.67
2019-06-15T06:01:13.250Z,14.33
2019-06-15T06:03:42.934Z,12.13
2019-06-15T06:06:12.578Z,13.43
2019-06-15T06:08:42.276Z,10.33
2019-06-15T06:11:11.926Z,15.33
2019-06-15T06:13:41.616Z,11.00
2019-06-15T06:16:11.271Z,9.67
2019-06-15T06:18:40.960Z,9.83
2019-06-15T06:21:10.684Z,10.73
2019-06-15T06:23:40.379Z,9.87
2019-06-15T06:26:10.394Z,12.63
2019-06-15T06:28:40.186Z,16.33
2019-06-15T06:31:09.881Z,19.17
2019-06-15T06:33:39.649Z,37.13
2019-06-15T06:36:10.542Z,28.17
2019-06-15T06:38:40.240Z,20.53
2019-06-15T06:41:13.286Z,18.10
2019-06-15T06:43:41.398Z,21.07
2019-06-15T06:46:12.052Z,19.50
2019-06-15T06:48:41.771Z,18.90
2019-06-15T06:51:11.469Z,14.33
2019-06-15T06:53:42.094Z,16.27
2019-06-15T06:56:11.859Z,19.00
2019-06-15T06:58:41.639Z,12.83
2019-06-15T07:01:11.302Z,14.87
2019-06-15T07:03:41.025Z,14.23
2019-06-15T07:06:10.821Z,10.80
2019-06-15T07:08:40.581Z,14.13
2019-06-15T07:11:10.309Z,11.60
2019-06-15T07:13:40.009Z,11.93
2019-06-15T07:16:09.656Z,13.67
2019-06-15T07:18:39.351Z,14.00
2019-06-15T07:21:09.222Z,13.13
2019-06-15T07:23:38.922Z,13.77
2019-06-15T07:26:09.642Z,15.37
2019-06-15T07:28:39.347Z,13.20
2019-06-15T07:31:09.045Z,15.33
2019-06-15T07:33:38.753Z,16.00
2019-06-15T07:36:08.463Z,9.83
2019-06-15T07:38:38.230Z,11.30
2019-06-15T07:41:08.142Z,16.30
2019-06-15T07:43:38.413Z,16.57
2019-06-15T07:46:08.176Z,15.90
2019-06-15T07:48:38.591Z,15.60
2019-06-15T07:51:08.317Z,11.43
2019-06-15T07:53:38.005Z,19.03
2019-06-15T07:56:07.717Z,11.73
2019-06-15T07:58:37.421Z,14.67
2019-06-15T08:01:07.401Z,12.80
2019-06-15T08:03:37.216Z,11.00
2019-06-15T08:06:06.913Z,13.20
2019-06-15T08:08:36.666Z,13.37
2019-06-15T08:11:08.491Z,13.47
2019-06-15T08:13:38.609Z,14.90
2019-06-15T08:16:10.439Z,11.83
2019-06-15T08:18:40.173Z,20.30
2019-06-15T08:21:10.104Z,16.90
2019-06-15T08:23:39.819Z,14.93
2019-06-15T08:26:09.518Z,13.73
2019-06-15T08:28:40.627Z,16.50
2019-06-15T08:31:10.537Z,12.50
2019-06-15T08:33:40.209Z,13.63
2019-06-15T08:36:10.020Z,15.77
2019-06-15T08:38:39.715Z,15.37
2019-06-15T08:41:09.632Z,18.33
2019-06-15T08:43:39.418Z,15.60
2019-06-15T08:46:09.135Z,29.20
2019-06-15T08:48:38.879Z,13.33
2019-06-15T08:51:08.899Z,21.33
2019-06-15T08:53:38.621Z,14.37
2019-06-15T08:56:08.442Z,17.63
2019-06-15T08:58:38.131Z,13.90
2019-06-15T09:01:07.932Z,15.77
2019-06-15T09:03:37.741Z,18.00
2019-06-15T09:06:07.689Z,19.03
2019-06-15T09:08:37.379Z,18.50
2019-06-15T09:11:07.333Z,13.30
2019-06-15T09:13:37.057Z,19.73
2019-06-15T09:16:06.830Z,18.53
2019-06-15T09:18:36.670Z,17.97
2019-06-15T09:21:06.378Z,15.77
2019-06-15T09:23:36.164Z,15.63
2019-06-15T09:26:05.972Z,16.07
2019-06-15T09:28:35.728Z,19.27
2019-06-15T09:31:05.480Z,16.37
2019-06-15T09:33:35.218Z,15.73
2019-06-15T09:36:05.206Z,18.63
2019-06-15T09:38:34.883Z,18.60
2019-06-15T09:41:05.078Z,26.73
2019-06-15T09:43:34.882Z,15.53
2019-06-15T09:46:04.821Z,18.07
2019-06-15T09:48:34.496Z,18.90
2019-06-15T09:51:04.338Z,15.33
2019-06-15T09:53:34.086Z,15.07
2019-06-15T09:56:03.914Z,20.60
2019-06-15T09:58:33.632Z,20.10
2019-06-15T10:01:03.409Z,26.17
2019-06-15T10:03:34.146Z,14.07
2019-06-15T10:06:05.616Z,22.10
2019-06-15T10:08:35.448Z,20.43
2019-06-15T10:11:05.214Z,22.63
2019-06-15T10:13:34.894Z,17.00
2019-06-15T10:16:04.665Z,21.20
2019-06-15T10:18:34.375Z,20.17
2019-06-15T10:21:05.110Z,25.77
2019-06-15T10:23:34.804Z,14.73
2019-06-15T10:26:26.231Z,18.17
2019-06-15T10:28:55.918Z,27.43
2019-06-15T10:31:25.696Z,18.80
2019-06-15T10:33:55.400Z,17.13
2019-06-15T10:36:25.094Z,23.23
2019-06-15T10:38:54.901Z,12.33
2019-06-15T10:41:24.598Z,22.77
2019-06-15T10:43:54.293Z,18.83
2019-06-15T10:46:24.006Z,22.03
2019-06-15T10:48:55.683Z,17.83
2019-06-15T10:51:25.191Z,18.20
2019-06-15T10:53:54.878Z,14.97
2019-06-15T10:56:24.634Z,19.60
2019-06-15T10:58:54.382Z,16.20
2019-06-15T11:01:25.058Z,16.40
2019-06-15T11:03:54.749Z,21.67
2019-06-15T11:06:24.522Z,16.50
2019-06-15T11:08:54.204Z,26.40
2019-06-15T11:11:24.806Z,14.80
2019-06-15T11:13:54.493Z,20.07
2019-06-15T11:16:24.566Z,24.70
2019-06-15T11:18:54.221Z,16.33
2019-06-15T11:21:23.920Z,20.33
2019-06-15T11:23:53.594Z,23.07
2019-06-15T11:26:23.321Z,20.47
2019-06-15T11:28:53.080Z,23.63
2019-06-15T11:31:22.880Z,18.97
2019-06-15T11:33:52.540Z,20.77
2019-06-15T11:36:22.252Z,27.90
2019-06-15T11:38:53.117Z,19.97
2019-06-15T11:41:22.951Z,15.83
2019-06-15T11:43:52.726Z,20.97
2019-06-15T11:46:22.508Z,19.70
2019-06-15T11:48:52.192Z,24.73
2019-06-15T11:51:21.962Z,21.60
2019-06-15T11:53:51.671Z,18.43
2019-06-15T11:56:21.478Z,25.20
2019-06-15T11:58:51.184Z,19.60
2019-06-15T12:01:20.878Z,25.63
2019-06-15T12:03:50.568Z,21.97
2019-06-15T12:06:20.406Z,23.43
2019-06-15T12:08:50.164Z,19.40
2019-06-15T12:11:19.860Z,19.93
2019-06-15T12:13:49.581Z,19.50
2019-06-15T12:16:19.375Z,18.63
2019-06-15T12:18:49.224Z,18.40
2019-06-15T12:21:18.923Z,18.57
2019-06-15T12:23:48.629Z,14.30
2019-06-15T12:26:19.339Z,15.70
2019-06-15T12:28:49.247Z,14.90
2019-06-15T12:31:18.932Z,19.20
2019-06-15T12:33:48.616Z,16.60
2019-06-15T12:36:19.517Z,18.70
2019-06-15T12:38:49.572Z,20.10
2019-06-15T12:41:19.275Z,16.70
2019-06-15T12:43:48.981Z,17.93
2019-06-15T12:46:18.689Z,18.30
2019-06-15T12:48:48.413Z,17.90
2019-06-15T12:51:18.121Z,13.57
2019-06-15T12:53:47.831Z,16.37
2019-06-15T12:56:17.514Z,24.67
2019-06-15T12:58:47.284Z,21.43
2019-06-15T13:01:16.975Z,20.83
2019-06-15T13:03:47.656Z,12.70
2019-06-15T13:06:17.319Z,13.73
2019-06-15T13:08:47.015Z,10.03
2019-06-15T13:11:16.680Z,15.20
2019-06-15T13:13:46.393Z,17.83
2019-06-15T13:16:16.236Z,13.87
2019-06-15T13:18:46.037Z,14.90
2019-06-15T13:21:16.777Z,17.50
2019-06-15T13:23:46.555Z,9.27
2019-06-15T13:26:16.270Z,13.30
2019-06-15T13:28:46.013Z,15.93
2019-06-15T13:31:18.343Z,18.43
2019-06-15T13:33:47.065Z,19.23
2019-06-15T13:36:16.777Z,14.07
2019-06-15T13:38:46.467Z,16.70
2019-06-15T13:41:16.119Z,12.80
2019-06-15T13:43:45.864Z,22.00
2019-06-15T13:46:15.588Z,13.93
2019-06-15T13:48:46.341Z,10.03
2019-06-15T13:51:16.126Z,18.00
2019-06-15T13:53:46.376Z,8.33
2019-06-15T13:56:16.022Z,12.10
2019-06-15T13:58:45.690Z,12.57
2019-06-15T14:01:15.472Z,10.17
2019-06-15T14:03:45.155Z,8.90
2019-06-15T14:06:14.838Z,8.83
2019-06-15T14:08:44.589Z,7.53
2019-06-15T14:11:14.283Z,17.90
2019-06-15T14:13:43.997Z,10.20
2019-06-15T14:16:13.834Z,7.73
2019-06-15T14:18:43.682Z,7.70
2019-06-15T14:21:13.404Z,17.80
2019-06-15T14:23:43.103Z,13.10
2019-06-15T14:26:12.842Z,10.27
2019-06-15T14:28:42.547Z,8.80
2019-06-15T14:31:12.292Z,9.00
2019-06-15T14:33:41.968Z,13.07
2019-06-15T14:36:11.731Z,11.83
2019-06-15T14:38:41.447Z,10.57
2019-06-15T14:41:11.115Z,9.13
2019-06-15T14:43:40.806Z,11.93
2019-06-15T14:46:10.517Z,7.47
2019-06-15T14:48:40.210Z,15.73
2019-06-15T14:51:09.978Z,10.40
2019-06-15T14:53:46.309Z,11.80
2019-06-15T14:56:11.462Z,7.87
2019-06-15T14:58:41.531Z,18.40
2019-06-15T15:01:11.214Z,12.63
2019-06-15T15:03:40.961Z,12.20
2019-06-15T15:06:10.868Z,18.03
2019-06-15T15:08:40.666Z,10.33
2019-06-15T15:11:10.586Z,9.23
2019-06-15T15:13:40.273Z,13.10
2019-06-15T15:16:10.138Z,13.10
2019-06-15T15:18:46.559Z,15.10
2019-06-15T15:21:16.679Z,11.00
2019-06-15T15:23:46.602Z,9.83
2019-06-15T15:26:17.171Z,11.33
2019-06-15T15:28:47.439Z,9.60
2019-06-15T15:31:17.505Z,12.80
2019-06-15T15:33:47.868Z,13.00
2019-06-15T15:36:17.668Z,11.30
2019-06-15T15:38:47.434Z,10.40
2019-06-15T15:41:22.338Z,13.27
2019-06-15T15:43:54.062Z,11.43
2019-06-15T15:46:23.876Z,12.40
2019-06-15T15:48:53.680Z,13.73
2019-06-15T15:51:26.020Z,9.50
2019-06-15T15:53:56.721Z,6.50
2019-06-15T15:56:27.208Z,10.67
2019-06-15T15:58:58.243Z,11.10
2019-06-15T16:01:28.093Z,9.17
2019-06-15T16:03:57.947Z,14.13
2019-06-15T16:06:27.697Z,14.87
2019-06-15T16:08:57.390Z,5.67
2019-06-15T16:11:27.190Z,12.97
2019-06-15T16:13:56.903Z,9.37
2019-06-15T16:16:26.853Z,9.33
2019-06-15T16:18:56.776Z,5.87
2019-06-15T16:21:27.590Z,7.00
2019-06-15T16:23:58.417Z,19.83
2019-06-15T16:26:29.681Z,9.10
2019-06-15T16:29:03.493Z,11.43
2019-06-15T16:31:33.773Z,6.20
2019-06-15T16:34:04.592Z,11.40
2019-06-15T16:36:36.323Z,20.60
2019-06-15T16:39:06.758Z,16.00
2019-06-15T16:41:37.973Z,9.50
2019-06-15T16:44:07.653Z,9.03
2019-06-15T16:46:37.326Z,8.73
2019-06-15T16:49:07.071Z,8.63
2019-06-15T16:51:36.760Z,8.50
2019-06-15T16:54:06.477Z,8.43
2019-06-15T16:56:36.304Z,8.13
2019-06-15T16:59:06.637Z,15.10
2019-06-15T17:01:36.626Z,13.30
2019-06-15T17:04:06.329Z,7.60
2019-06-15T17:06:37.661Z,10.03
2019-06-15T17:09:07.716Z,8.80
2019-06-15T17:11:37.751Z,7.00
2019-06-15T17:14:12.172Z,9.57
2019-06-15T17:16:41.993Z,8.07
2019-06-15T17:19:11.771Z,6.40
2019-06-15T17:21:41.464Z,6.13
2019-06-15T17:24:11.327Z,8.50
2019-06-15T17:26:41.049Z,5.43
2019-06-15T17:29:10.775Z,7.30
2019-06-15T17:31:40.500Z,5.30
2019-06-15T17:34:10.281Z,4.00
2019-06-15T17:36:40.123Z,5.53
2019-06-15T17:39:10.909Z,8.70
2019-06-15T17:41:40.623Z,4.40
2019-06-15T17:44:10.383Z,4.43
2019-06-15T17:46:40.077Z,3.93
2019-06-15T17:49:09.735Z,6.53
2019-06-15T17:51:39.606Z,5.27
2019-06-15T17:54:09.387Z,11.90
2019-06-15T17:56:39.108Z,5.00
2019-06-15T17:59:08.808Z,5.20
2019-06-15T18:01:38.521Z,4.70
2019-06-15T18:04:08.209Z,4.17
2019-06-15T18:06:37.864Z,6.00
2019-06-15T18:09:07.725Z,4.23
2019-06-15T18:11:37.694Z,6.70
2019-06-15T18:14:07.593Z,4.40
2019-06-15T18:16:37.287Z,4.80
2019-06-15T18:19:07.124Z,6.47
2019-06-15T18:21:40.867Z,11.03
2019-06-15T18:24:16.276Z,6.13
2019-06-15T18:26:47.381Z,4.00
2019-06-15T18:29:17.795Z,7.00
2019-06-15T18:31:47.637Z,3.20
2019-06-15T18:34:17.372Z,4.10
2019-06-15T18:36:51.616Z,6.90
2019-06-15T18:39:21.594Z,6.10
2019-06-15T18:41:51.594Z,4.20
2019-06-15T18:44:21.369Z,4.83
2019-06-15T18:46:52.426Z,4.30
2019-06-15T18:49:22.598Z,7.80
2019-06-15T18:51:52.478Z,4.23
2019-06-15T18:54:22.186Z,4.13
2019-06-15T18:56:52.187Z,4.60
2019-06-15T18:59:21.890Z,4.83
2019-06-15T19:01:51.583Z,4.73
2019-06-15T19:04:27.220Z,6.20
2019-06-15T19:06:52.649Z,4.90
2019-06-15T19:09:22.366Z,3.70
2019-06-15T19:11:52.037Z,3.10
2019-06-15T19:14:21.767Z,3.47
2019-06-15T19:16:51.454Z,7.30
2019-06-15T19:19:22.578Z,3.60
2019-06-15T19:21:52.330Z,3.33
2019-06-15T19:24:22.197Z,3.93
2019-06-15T19:26:52.013Z,3.00
2019-06-15T19:29:21.727Z,3.13
2019-06-15T19:31:54.214Z,3.57
2019-06-15T19:34:22.793Z,3.40
2019-06-15T19:36:52.481Z,3.00
2019-06-15T19:39:22.177Z,5.60
2019-06-15T19:41:51.903Z,3.23
2019-06-15T19:44:21.661Z,7.10
2019-06-15T19:46:51.431Z,3.60
2019-06-15T19:49:21.164Z,3.33
2019-06-15T19:51:50.887Z,4.10
2019-06-15T19:54:20.581Z,3.50
2019-06-15T19:56:50.280Z,5.20
2019-06-15T19:59:19.975Z,5.90
2019-06-15T20:01:49.643Z,8.53
2019-06-15T20:04:19.358Z,3.73
2019-06-15T20:06:50.326Z,4.10
2019-06-15T20:09:20.082Z,5.80
2019-06-15T20:11:49.831Z,9.53
2019-06-15T20:14:19.704Z,5.17
2019-06-15T20:16:49.450Z,10.03
2019-06-15T20:19:19.256Z,10.90
2019-06-15T20:21:50.938Z,3.40
2019-06-15T20:24:20.639Z,5.97
2019-06-15T20:26:50.344Z,3.60
2019-06-15T20:29:20.486Z,5.33
2019-06-15T20:31:50.277Z,5.30
2019-06-15T20:34:19.974Z,7.87
2019-06-15T20:36:49.640Z,6.83
2019-06-15T20:39:19.324Z,8.90
2019-06-15T20:41:49.000Z,5.50
2019-06-15T20:44:18.944Z,6.00
2019-06-15T20:46:49.786Z,4.33
2019-06-15T20:49:19.621Z,3.63
2019-06-15T20:51:49.343Z,4.90
2019-06-15T20:54:19.208Z,5.10
2019-06-15T20:56:48.906Z,9.30
2019-06-15T20:59:18.566Z,5.37
2019-06-15T21:01:48.738Z,5.27
2019-06-15T21:04:33.165Z,4.53
2019-06-15T21:07:03.105Z,8.40
2019-06-15T21:09:32.859Z,4.03
2019-06-15T21:12:02.650Z,7.23
2019-06-15T21:14:32.311Z,3.70
2019-06-15T21:17:02.010Z,4.60
2019-06-15T21:19:31.736Z,8.30
2019-06-15T21:22:01.432Z,7.40
2019-06-15T21:24:31.317Z,6.23
2019-06-15T21:27:01.104Z,6.60
2019-06-15T21:29:31.494Z,6.40
2019-06-15T21:32:01.526Z,7.50
2019-06-15T21:34:31.719Z,3.27
2019-06-15T21:37:01.550Z,2.80
2019-06-15T21:39:31.231Z,3.97
2019-06-15T21:42:00.978Z,3.17
2019-06-15T21:44:35.957Z,7.77
2019-06-15T21:47:06.905Z,4.37
2019-06-15T21:49:36.789Z,2.17
2019-06-15T21:52:07.097Z,3.80
2019-06-15T21:54:37.123Z,2.03
2019-06-15T21:57:07.154Z,3.13
2019-06-15T21:59:37.182Z,1.43
2019-06-15T22:02:07.244Z,3.13
2019-06-15T22:04:37.376Z,4.63
2019-06-15T22:07:08.235Z,1.43
2019-06-15T22:09:37.904Z,1.53
2019-06-15T22:12:07.596Z,3.23
2019-06-15T22:14:37.276Z,1.70
2019-06-15T22:17:06.959Z,1.30
2019-06-15T22:19:36.983Z,2.27
2019-06-15T22:22:18.869Z,1.83
2019-06-15T22:24:48.546Z,4.97
2019-06-15T22:27:18.302Z,2.10
2019-06-15T22:29:47.961Z,1.23
2019-06-15T22:32:17.776Z,1.17
2019-06-15T22:34:47.477Z,1.90
2019-06-15T22:37:17.417Z,7.40
2019-06-15T22:39:47.223Z,1.83
2019-06-15T22:42:16.925Z,0.87
2019-06-15T22:44:46.737Z,0.77
2019-06-15T22:47:16.815Z,1.57
2019-06-15T22:49:46.921Z,2.83
2019-06-15T22:52:17.214Z,0.80
2019-06-15T22:54:46.996Z,1.17
2019-06-15T22:57:16.847Z,0.83
2019-06-15T22:59:46.510Z,0.90
2019-06-15T23:02:16.804Z,0.80
2019-06-15T23:04:47.185Z,0.97
2019-06-15T23:07:18.107Z,1.37
2019-06-15T23:09:47.863Z,1.57
2019-06-15T23:12:17.591Z,1.23
2019-06-15T23:14:47.268Z,1.37
2019-06-15T23:17:16.953Z,1.03
2019-06-15T23:19:46.630Z,2.23
2019-06-15T23:22:17.102Z,4.67
2019-06-15T23:24:47.004Z,0.80
2019-06-15T23:27:16.782Z,1.10
2019-06-15T23:29:46.513Z,0.80
2019-06-15T23:32:16.954Z,0.57
2019-06-15T23:34:46.816Z,0.80
2019-06-15T23:37:18.275Z,0.80
2019-06-15T23:40:07.482Z,1.10
2019-06-15T23:42:37.395Z,2.97
2019-06-15T23:45:07.353Z,2.93
2019-06-15T23:47:37.037Z,3.90
2019-06-15T23:50:07.726Z,0.80
2019-06-15T23:52:37.423Z,0.70
2019-06-15T23:55:07.330Z,1.47
2019-06-15T23:57:37.073Z,0.77
